createdAt,value
2023-01-04T00:01:43.297Z,100962.13
2023-01-04T00:04:12.554Z,100967.00
2023-01-04T00:06:41.947Z,100966.14
2023-01-04T00:09:11.639Z,100969.00
2023-01-04T00:11:42.175Z,100975.59
2023-01-04T00:14:12.067Z,100971.30
2023-01-04T00:16:41.923Z,100981.30
2023-01-04T00:19:12.548Z,100981.09
2023-01-04T00:21:41.294Z,100979.53
2023-01-04T00:24:10.997Z,100983.04
2023-01-04T00:26:40.320Z,100980.26
2023-01-04T00:29:11.491Z,100976.33
2023-01-04T00:31:41.039Z,100985.62
2023-01-04T00:34:09.855Z,100985.27
2023-01-04T00:36:39.640Z,100983.81
2023-01-04T00:39:12.342Z,100988.67
2023-01-04T00:42:01.678Z,100985.09
2023-01-04T00:44:24.486Z,100982.39
2023-01-04T00:46:53.256Z,100983.67
2023-01-04T00:49:22.378Z,100982.31
2023-01-04T00:51:51.593Z,100984.81
2023-01-04T00:54:20.999Z,100988.82
2023-01-04T00:56:49.620Z,100993.17
2023-01-04T00:59:20.222Z,100984.82
2023-01-04T01:01:48.781Z,100980.04
2023-01-04T01:04:19.602Z,100986.47
2023-01-04T01:06:50.904Z,100985.39
2023-01-04T01:09:21.577Z,100976.05
2023-01-04T01:11:51.189Z,100979.61
2023-01-04T01:14:23.766Z,100974.19
2023-01-04T01:16:55.807Z,100979.33
2023-01-04T01:19:22.589Z,100972.19
2023-01-04T01:21:51.266Z,100971.83
2023-01-04T01:24:21.493Z,100969.05
2023-01-04T01:26:51.908Z,100973.05
2023-01-04T01:29:20.986Z,100969.27
2023-01-04T01:31:49.816Z,100962.77
2023-01-04T01:34:20.295Z,100977.61
2023-01-04T01:36:48.950Z,100971.83
2023-01-04T01:39:17.998Z,100975.04
2023-01-04T01:41:47.030Z,100977.39
2023-01-04T01:44:47.685Z,100982.10
2023-01-04T01:47:20.506Z,100989.02
2023-01-04T01:49:50.473Z,100983.95
2023-01-04T01:52:26.718Z,100988.17
2023-01-04T01:55:02.915Z,100987.31
2023-01-04T01:57:34.440Z,100986.31
2023-01-04T02:00:11.761Z,100978.17
2023-01-04T02:02:58.488Z,100977.81
2023-01-04T02:05:29.121Z,100976.82
2023-01-04T02:07:58.040Z,100973.97
2023-01-04T02:10:27.440Z,100972.83
2023-01-04T02:12:58.086Z,100969.55
2023-01-04T02:15:27.384Z,100968.97
2023-01-04T02:18:05.844Z,100968.75
2023-01-04T02:20:48.484Z,100971.97
2023-01-04T02:23:48.327Z,100967.04
2023-01-04T02:26:38.012Z,100964.97
2023-01-04T02:29:23.927Z,100962.90
2023-01-04T02:32:06.301Z,100962.29
2023-01-04T02:34:46.416Z,100963.92
2023-01-04T02:37:37.515Z,100956.08
2023-01-04T02:40:17.452Z,100949.22
2023-01-04T02:43:18.899Z,100951.00
2023-01-04T02:46:08.691Z,100953.00
2023-01-04T02:48:56.802Z,100954.84
2023-01-04T02:51:37.313Z,100964.11
2023-01-04T02:54:20.320Z,100965.89
2023-01-04T02:57:12.067Z,100961.74
2023-01-04T02:59:58.504Z,100960.03
2023-01-04T03:03:23.203Z,100957.10
2023-01-04T03:06:21.779Z,100959.53
2023-01-04T03:09:17.231Z,100961.66
2023-01-04T03:12:12.659Z,100951.60
2023-01-04T03:14:57.203Z,100950.38
2023-01-04T03:17:28.533Z,100946.32
2023-01-04T03:19:59.925Z,100953.95
2023-01-04T03:23:04.138Z,100956.16
2023-01-04T03:25:59.295Z,100956.30
2023-01-04T03:28:50.455Z,100965.42
2023-01-04T03:31:47.230Z,100957.44
2023-01-04T03:34:35.064Z,100958.92
2023-01-04T03:37:39.674Z,100958.29
2023-01-04T03:40:48.363Z,100962.98
2023-01-04T03:43:41.519Z,100959.70
2023-01-04T03:46:40.429Z,100971.17
2023-01-04T03:49:36.502Z,100972.88
2023-01-04T03:52:05.902Z,100968.59
2023-01-04T03:54:41.372Z,100963.68
2023-01-04T03:57:10.142Z,100964.31
2023-01-04T03:59:46.271Z,100965.45
2023-01-04T04:02:19.642Z,100968.66
2023-01-04T04:05:07.313Z,100975.42
2023-01-04T04:07:54.222Z,100972.22
2023-01-04T04:10:23.376Z,100972.00
2023-01-04T04:12:52.302Z,100976.33
2023-01-04T04:15:22.575Z,100962.07
2023-01-04T04:17:53.321Z,100967.95
2023-01-04T04:20:22.332Z,100966.98
2023-01-04T04:22:51.091Z,100971.05
2023-01-04T04:25:19.779Z,100969.80
2023-01-04T04:27:49.179Z,100969.94
2023-01-04T04:30:19.230Z,100968.09
2023-01-04T04:32:49.472Z,100972.02
2023-01-04T04:35:19.364Z,100976.47
2023-01-04T04:37:48.069Z,100971.41
2023-01-04T04:40:36.266Z,100971.91
2023-01-04T04:43:07.852Z,100969.42
2023-01-04T04:45:37.688Z,100972.36
2023-01-04T04:48:06.954Z,100969.29
2023-01-04T04:50:36.523Z,100965.86
2023-01-04T04:53:05.771Z,100964.39
2023-01-04T04:55:35.134Z,100972.64
2023-01-04T04:58:04.202Z,100971.07
2023-01-04T05:00:33.234Z,100977.34
2023-01-04T05:03:02.746Z,100979.55
2023-01-04T05:05:33.349Z,100981.63
2023-01-04T05:08:02.996Z,100978.78
2023-01-04T05:10:31.763Z,100978.05
2023-01-04T05:13:02.075Z,100979.04
2023-01-04T05:15:37.471Z,100988.52
2023-01-04T05:18:07.897Z,100989.59
2023-01-04T05:20:36.767Z,100990.19
2023-01-04T05:23:06.231Z,100988.69
2023-01-04T05:25:35.823Z,100991.62
2023-01-04T05:28:05.825Z,100992.34
2023-01-04T05:30:53.371Z,100991.21
2023-01-04T05:33:30.806Z,100996.00
2023-01-04T05:36:02.099Z,100999.78
2023-01-04T05:38:31.394Z,101005.92
2023-01-04T05:41:00.479Z,101006.50
2023-01-04T05:43:29.378Z,101004.66
2023-01-04T05:45:59.119Z,101002.94
2023-01-04T05:48:27.850Z,101007.58
2023-01-04T05:50:56.449Z,101001.53
2023-01-04T05:53:25.239Z,100996.97
2023-01-04T05:55:53.739Z,101006.45
2023-01-04T05:58:24.432Z,100999.95
2023-01-04T06:00:53.021Z,101007.09
2023-01-04T06:03:21.846Z,101008.30
2023-01-04T06:05:52.009Z,101002.25
2023-01-04T06:08:20.925Z,101007.89
2023-01-04T06:10:55.533Z,101005.04
2023-01-04T06:13:25.186Z,101001.11
2023-01-04T06:15:53.915Z,101003.96
2023-01-04T06:18:24.205Z,101002.97
2023-01-04T06:20:53.399Z,101012.45
2023-01-04T06:23:22.077Z,101008.38
2023-01-04T06:25:50.794Z,101015.02
2023-01-04T06:28:19.673Z,101017.38
2023-01-04T06:30:48.914Z,101022.30
2023-01-04T06:33:18.981Z,101033.36
2023-01-04T06:35:56.393Z,101030.64
2023-01-04T06:38:25.501Z,101030.64
2023-01-04T06:40:57.417Z,101023.95
2023-01-04T06:43:26.692Z,101030.73
2023-01-04T06:45:56.677Z,101031.95
2023-01-04T06:48:27.500Z,101030.45
2023-01-04T06:50:56.387Z,101026.39
2023-01-04T06:53:25.234Z,101024.53
2023-01-04T06:55:54.562Z,101037.45
2023-01-04T06:58:24.035Z,101036.95
2023-01-04T07:00:54.647Z,101050.23
2023-01-04T07:03:23.763Z,101041.32
2023-01-04T07:05:54.216Z,101036.13
2023-01-04T07:08:23.101Z,101039.05
2023-01-04T07:10:52.532Z,101038.55
2023-01-04T07:13:22.363Z,101039.30
2023-01-04T07:15:51.832Z,101038.41
2023-01-04T07:18:21.436Z,101040.27
2023-01-04T07:20:51.368Z,101038.91
2023-01-04T07:23:22.238Z,101037.20
2023-01-04T07:25:50.931Z,101039.77
2023-01-04T07:28:38.735Z,101044.17
2023-01-04T07:31:08.108Z,101041.53
2023-01-04T07:33:36.974Z,101042.97
2023-01-04T07:36:06.669Z,101041.97
2023-01-04T07:38:35.554Z,101051.83
2023-01-04T07:41:04.838Z,101041.83
2023-01-04T07:43:33.535Z,101048.83
2023-01-04T07:46:02.301Z,101056.33
2023-01-04T07:48:31.249Z,101052.76
2023-01-04T07:51:00.012Z,101060.26
2023-01-04T07:53:28.959Z,101049.27
2023-01-04T07:55:58.682Z,101050.84
2023-01-04T07:58:33.246Z,101047.63
2023-01-04T08:01:09.409Z,101053.77
2023-01-04T08:03:38.969Z,101052.41
2023-01-04T08:06:10.770Z,101052.55
2023-01-04T08:08:39.395Z,101051.20
2023-01-04T08:11:14.251Z,101049.06
2023-01-04T08:13:43.208Z,101048.92
2023-01-04T08:16:23.394Z,101056.28
2023-01-04T08:18:56.609Z,101056.70
2023-01-04T08:21:28.992Z,101056.78
2023-01-04T08:23:57.903Z,101061.21
2023-01-04T08:26:26.571Z,101061.92
2023-01-04T08:28:56.448Z,101067.71
2023-01-04T08:31:31.026Z,101068.71
2023-01-04T08:34:02.457Z,101069.21
2023-01-04T08:36:35.833Z,101066.64
2023-01-04T08:39:06.588Z,101072.78
2023-01-04T08:41:57.442Z,101072.78
2023-01-04T08:44:09.678Z,101071.78
2023-01-04T08:46:38.885Z,101073.86
2023-01-04T08:49:09.013Z,101069.14
2023-01-04T08:51:37.660Z,101064.08
2023-01-04T08:54:06.560Z,101064.22
2023-01-04T08:56:36.893Z,101066.28
2023-01-04T08:59:06.024Z,101069.72
2023-01-04T09:01:35.588Z,101062.93
2023-01-04T09:04:05.653Z,101069.72
2023-01-04T09:06:34.593Z,101064.08
2023-01-04T09:09:03.215Z,101064.08
2023-01-04T09:11:35.576Z,101057.65
2023-01-04T09:14:09.108Z,101057.08
2023-01-04T09:16:40.399Z,101071.61
2023-01-04T09:19:09.201Z,101057.54
2023-01-04T09:21:38.635Z,101063.83
2023-01-04T09:26:52.441Z,101068.39
2023-01-04T09:29:22.356Z,101069.11
2023-01-04T09:31:51.563Z,101068.97
2023-01-04T09:34:21.293Z,101074.89
2023-01-04T09:36:52.327Z,101071.17
2023-01-04T09:39:23.758Z,101063.47
2023-01-04T09:42:03.922Z,101059.39
2023-01-04T09:47:42.165Z,101061.18
2023-01-04T09:50:32.235Z,101053.81
2023-01-04T09:53:14.257Z,101051.61
2023-01-04T09:55:50.285Z,101043.46
2023-01-04T09:58:36.692Z,101040.31
2023-01-04T10:01:17.249Z,101040.45
2023-01-04T10:04:39.553Z,101042.46
2023-01-04T10:07:28.980Z,101044.53
2023-01-04T10:09:59.902Z,101048.18
2023-01-04T10:13:05.200Z,101048.11
2023-01-04T10:15:45.638Z,101048.39
2023-01-04T10:21:33.564Z,101050.39
2023-01-04T10:24:14.105Z,101047.86
2023-01-04T10:26:48.786Z,101046.44
2023-01-04T10:29:43.046Z,101053.50
2023-01-04T10:32:26.646Z,101058.79
2023-01-04T10:34:55.878Z,101046.44
2023-01-04T10:37:29.779Z,101047.94
2023-01-04T10:39:58.585Z,101041.66
2023-01-04T10:42:49.366Z,101043.36
2023-01-04T10:45:35.852Z,101047.58
2023-01-04T10:48:38.516Z,101052.86
2023-01-04T10:51:10.626Z,101051.86
2023-01-04T10:53:50.460Z,101043.94
2023-01-04T10:56:28.046Z,101048.15
2023-01-04T10:59:14.582Z,101055.93
2023-01-04T11:02:04.151Z,101055.44
2023-01-04T11:04:45.543Z,101057.58
2023-01-04T11:07:23.097Z,101052.57
2023-01-04T11:10:03.257Z,101057.42
2023-01-04T11:12:33.943Z,101049.85
2023-01-04T11:15:05.905Z,101059.98
2023-01-04T11:17:36.334Z,101057.34
2023-01-04T11:20:07.342Z,101059.18
2023-01-04T11:22:44.287Z,101068.02
2023-01-04T11:25:36.506Z,101074.57
2023-01-04T11:28:05.430Z,101057.37
2023-01-04T11:30:41.179Z,101054.22
2023-01-04T11:33:22.087Z,101048.18
2023-01-04T11:35:55.499Z,101052.47
2023-01-04T11:38:27.785Z,101053.82
2023-01-04T11:41:02.118Z,101048.29
2023-01-04T11:43:33.688Z,101040.37
2023-01-04T11:46:23.986Z,101041.45
2023-01-04T11:48:53.274Z,101032.41
2023-01-04T11:51:33.742Z,101037.77
2023-01-04T11:54:19.394Z,101037.34
2023-01-04T11:57:05.829Z,101038.20
2023-01-04T11:59:33.344Z,101037.70
2023-01-04T12:04:57.530Z,101032.86
2023-01-04T12:07:32.959Z,101037.00
2023-01-04T12:10:21.955Z,101028.44
2023-01-04T12:12:51.382Z,101028.51
2023-01-04T12:15:41.094Z,101023.44
2023-01-04T12:18:21.996Z,101026.87
2023-01-04T12:20:50.889Z,101030.58
2023-01-04T12:23:21.352Z,101024.16
2023-01-04T12:25:51.376Z,101025.16
2023-01-04T12:28:37.182Z,101032.72
2023-01-04T12:31:27.996Z,101030.51
2023-01-04T12:34:25.397Z,101031.22
2023-01-04T12:37:04.561Z,101035.37
2023-01-04T12:39:47.505Z,101042.22
2023-01-04T12:42:22.705Z,101032.02
2023-01-04T12:44:57.257Z,101028.44
2023-01-04T12:47:53.855Z,101027.73
2023-01-04T12:50:25.982Z,101036.58
2023-01-04T12:55:44.920Z,101028.58
2023-01-04T13:01:09.178Z,101035.14
2023-01-04T13:03:46.414Z,101047.63
2023-01-04T13:06:15.467Z,101046.91
2023-01-04T13:08:47.400Z,101049.27
2023-01-04T13:11:48.780Z,101044.48
2023-01-04T13:14:50.633Z,101049.91
2023-01-04T13:17:26.504Z,101043.77
2023-01-04T13:19:58.104Z,101048.19
2023-01-04T13:22:30.124Z,101035.62
2023-01-04T13:24:59.757Z,101034.91
2023-01-04T13:27:28.408Z,101029.13
2023-01-04T13:29:57.490Z,101029.84
2023-01-04T13:32:31.181Z,101035.77
2023-01-04T13:35:14.410Z,101041.33
2023-01-04T13:37:50.555Z,101045.69
2023-01-04T13:40:32.564Z,101055.81
2023-01-04T13:43:48.770Z,101057.66
2023-01-04T13:46:23.432Z,101054.73
2023-01-04T13:48:56.713Z,101053.66
2023-01-04T13:51:36.688Z,101051.58
2023-01-04T13:54:06.922Z,101050.86
2023-01-04T13:56:36.630Z,101054.07
2023-01-04T13:59:05.671Z,101051.97
2023-01-04T14:01:38.351Z,101052.74
2023-01-04T14:04:17.738Z,101053.38
2023-01-04T14:06:51.990Z,101051.09
2023-01-04T14:09:28.646Z,101045.80
2023-01-04T14:12:08.410Z,101037.67
2023-01-04T14:14:55.354Z,101036.95
2023-01-04T14:17:48.604Z,101037.45
2023-01-04T14:20:26.613Z,101036.87
2023-01-04T14:22:58.273Z,101040.08
2023-01-04T14:25:43.234Z,101032.44
2023-01-04T14:28:32.754Z,101029.73
2023-01-04T14:31:11.353Z,101035.16
2023-01-04T14:33:46.140Z,101032.09
2023-01-04T14:36:26.728Z,101032.58
2023-01-04T14:39:07.109Z,101017.95
2023-01-04T14:41:55.415Z,101018.01
2023-01-04T14:44:30.808Z,101016.20
2023-01-04T14:47:03.687Z,101014.86
2023-01-04T14:49:34.951Z,101019.28
2023-01-04T14:52:06.143Z,101019.55
2023-01-04T14:54:34.924Z,101014.13
2023-01-04T14:57:04.335Z,101010.65
2023-01-04T14:59:35.039Z,101014.94
2023-01-04T15:02:04.667Z,101014.08
2023-01-04T15:04:36.022Z,101012.50
2023-01-04T15:07:04.811Z,101016.13
2023-01-04T15:09:35.992Z,101012.70
2023-01-04T15:12:05.006Z,101010.98
2023-01-04T15:14:35.224Z,101011.39
2023-01-04T15:17:04.305Z,101009.31
2023-01-04T15:19:37.774Z,101006.11
2023-01-04T15:22:04.374Z,101006.47
2023-01-04T15:24:33.812Z,101010.03
2023-01-04T15:27:04.798Z,101008.91
2023-01-04T15:29:34.612Z,100996.22
2023-01-04T15:32:04.723Z,100996.22
2023-01-04T15:34:39.455Z,100994.37
2023-01-04T15:37:08.590Z,100987.45
2023-01-04T15:39:38.499Z,100984.16
2023-01-04T15:42:28.733Z,100982.23
2023-01-04T15:44:58.733Z,100985.80
2023-01-04T15:47:31.762Z,100983.09
2023-01-04T15:50:00.839Z,100979.66
2023-01-04T15:52:30.703Z,100970.59
2023-01-04T15:55:00.180Z,100977.41
2023-01-04T15:57:29.063Z,100973.77
2023-01-04T15:59:58.121Z,100976.30
2023-01-04T16:02:27.120Z,100981.81
2023-01-04T16:04:57.568Z,100970.44
2023-01-04T16:07:32.601Z,100974.14
2023-01-04T16:09:59.203Z,100977.84
2023-01-04T16:12:45.956Z,100971.34
2023-01-04T16:15:18.960Z,100962.63
2023-01-04T16:17:49.404Z,100970.56
2023-01-04T16:20:18.789Z,100958.92
2023-01-04T16:22:47.899Z,100956.34
2023-01-04T16:25:19.388Z,100948.00
2023-01-04T16:27:48.143Z,100956.26
2023-01-04T16:30:17.396Z,100950.42
2023-01-04T16:32:48.260Z,100945.80
2023-01-04T16:35:18.486Z,100943.16
2023-01-04T16:37:47.459Z,100941.34
2023-01-04T16:40:18.234Z,100939.89
2023-01-04T16:42:49.083Z,100931.42
2023-01-04T16:45:19.980Z,100932.37
2023-01-04T16:47:50.177Z,100931.23
2023-01-04T16:50:19.191Z,100922.27
2023-01-04T16:52:48.699Z,100914.31
2023-01-04T16:55:23.611Z,100922.95
2023-01-04T16:57:51.163Z,100917.44
2023-01-04T17:00:20.785Z,100914.41
2023-01-04T17:02:49.656Z,100913.08
2023-01-04T17:05:21.123Z,100910.74
2023-01-04T17:07:52.532Z,100908.90
2023-01-04T17:10:27.419Z,100902.76
2023-01-04T17:12:54.611Z,100895.77
2023-01-04T17:15:42.600Z,100899.33
2023-01-04T17:17:55.361Z,100896.03
2023-01-04T17:20:24.311Z,100894.58
2023-01-04T17:22:53.759Z,100889.43
2023-01-04T17:25:23.991Z,100889.06
2023-01-04T17:27:52.977Z,100885.41
2023-01-04T17:30:22.454Z,100881.25
2023-01-04T17:32:51.872Z,100874.39
2023-01-04T17:35:21.637Z,100866.91
2023-01-04T17:37:51.488Z,100869.73
2023-01-04T17:40:23.203Z,100861.29
2023-01-04T17:42:52.012Z,100861.44
2023-01-04T17:45:23.117Z,100854.09
2023-01-04T17:47:53.128Z,100859.62
2023-01-04T17:50:22.542Z,100859.51
2023-01-04T17:52:52.089Z,100860.75
2023-01-04T17:55:21.793Z,100857.94
2023-01-04T17:57:51.152Z,100855.95
2023-01-04T18:00:21.455Z,100848.48
2023-01-04T18:02:51.275Z,100855.36
2023-01-04T18:05:20.947Z,100849.25
2023-01-04T18:07:50.402Z,100844.96
2023-01-04T18:10:33.335Z,100847.30
2023-01-04T18:12:54.821Z,100841.41
2023-01-04T18:15:25.435Z,100853.05
2023-01-04T18:17:56.921Z,100849.36
2023-01-04T18:20:27.654Z,100848.14
2023-01-04T18:22:56.984Z,100843.60
2023-01-04T18:25:30.395Z,100828.38
2023-01-04T18:27:59.619Z,100831.19
2023-01-04T18:30:30.282Z,100825.04
2023-01-04T18:33:00.820Z,100821.62
2023-01-04T18:35:30.413Z,100819.78
2023-01-04T18:38:00.334Z,100813.52
2023-01-04T18:40:30.307Z,100808.36
2023-01-04T18:43:01.314Z,100812.13
2023-01-04T18:45:31.385Z,100812.11
2023-01-04T18:48:02.795Z,100810.00
2023-01-04T18:50:33.728Z,100807.91
2023-01-04T18:53:03.839Z,100804.69
2023-01-04T18:55:34.196Z,100796.32
2023-01-04T18:58:03.732Z,100801.69
2023-01-04T19:00:33.302Z,100789.30
2023-01-04T19:03:02.511Z,100790.79
2023-01-04T19:05:31.663Z,100789.30
2023-01-04T19:08:00.953Z,100784.99
2023-01-04T19:10:29.989Z,100793.82
2023-01-04T19:12:59.489Z,100780.67
2023-01-04T19:15:28.339Z,100786.80
2023-01-04T19:17:59.068Z,100787.53
2023-01-04T19:20:28.637Z,100773.89
2023-01-04T19:23:00.175Z,100778.53
2023-01-04T19:25:29.017Z,100783.31
2023-01-04T19:27:58.700Z,100781.96
2023-01-04T19:30:28.547Z,100779.48
2023-01-04T19:32:57.831Z,100767.92
2023-01-04T19:35:27.254Z,100775.39
2023-01-04T19:37:58.287Z,100772.20
2023-01-04T19:40:27.605Z,100775.75
2023-01-04T19:42:56.843Z,100765.80
2023-01-04T19:45:26.907Z,100764.94
2023-01-04T19:47:57.265Z,100763.09
2023-01-04T19:50:26.139Z,100765.30
2023-01-04T19:52:55.337Z,100762.24
2023-01-04T19:55:27.887Z,100754.13
2023-01-04T19:57:59.426Z,100751.92
2023-01-04T20:00:31.343Z,100740.62
2023-01-04T20:03:01.309Z,100748.38
2023-01-04T20:05:30.885Z,100744.95
2023-01-04T20:08:01.862Z,100743.38
2023-01-04T20:10:32.267Z,100746.57
2023-01-04T20:13:02.955Z,100742.88
2023-01-04T20:15:32.938Z,100738.47
2023-01-04T20:18:01.729Z,100736.26
2023-01-04T20:20:34.089Z,100736.62
2023-01-04T20:23:02.804Z,100735.40
2023-01-04T20:25:31.743Z,100731.98
2023-01-04T20:28:00.684Z,100720.31
2023-01-04T20:30:31.411Z,100714.06
2023-01-04T20:33:01.395Z,100714.55
2023-01-04T20:35:31.568Z,100699.60
2023-01-04T20:38:01.815Z,100691.90
2023-01-04T20:40:31.279Z,100698.42
2023-01-04T20:43:18.537Z,100700.99
2023-01-04T20:45:48.390Z,100682.94
2023-01-04T20:48:18.237Z,100679.88
2023-01-04T20:50:48.969Z,100679.88
2023-01-04T20:53:18.539Z,100672.27
2023-01-04T20:55:48.185Z,100680.11
2023-01-04T20:58:17.651Z,100666.46
2023-01-04T21:00:47.625Z,100667.55
2023-01-04T21:03:17.092Z,100664.84
2023-01-04T21:05:47.977Z,100668.40
2023-01-04T21:08:18.455Z,100665.70
2023-01-04T21:10:48.571Z,100661.64
2023-01-04T21:13:21.274Z,100648.64
2023-01-04T21:15:53.550Z,100642.88
2023-01-04T21:18:23.739Z,100629.86
2023-01-04T21:20:56.182Z,100622.39
2023-01-04T21:23:26.952Z,100615.99
2023-01-04T21:25:57.535Z,100615.23
2023-01-04T21:28:26.967Z,100608.11
2023-01-04T21:30:58.249Z,100611.17
2023-01-04T21:33:27.947Z,100600.86
2023-01-04T21:35:58.643Z,100592.54
2023-01-04T21:38:29.028Z,100588.98
2023-01-04T21:40:59.757Z,100586.50
2023-01-04T21:43:28.769Z,100577.05
2023-01-04T21:45:58.184Z,100574.21
2023-01-04T21:48:27.524Z,100563.77
2023-01-04T21:51:02.123Z,100562.77
2023-01-04T21:53:35.346Z,100558.44
2023-01-04T21:56:14.463Z,100551.19
2023-01-04T21:58:43.984Z,100547.36
2023-01-04T22:01:18.762Z,100545.02
2023-01-04T22:03:48.315Z,100538.75
2023-01-04T22:06:21.048Z,100539.83
2023-01-04T22:08:52.408Z,100531.48
2023-01-04T22:11:21.388Z,100522.02
2023-01-04T22:13:52.286Z,100516.62
2023-01-04T22:16:21.174Z,100505.91
2023-01-04T22:18:50.267Z,100502.72
2023-01-04T22:21:27.581Z,100495.00
2023-01-04T22:23:57.583Z,100497.45
2023-01-04T22:26:27.522Z,100487.00
2023-01-04T22:28:57.045Z,100481.35
2023-01-04T22:31:26.982Z,100476.94
2023-01-04T22:33:57.854Z,100475.59
2023-01-04T22:36:27.490Z,100478.41
2023-01-04T22:38:57.386Z,100459.62
2023-01-04T22:41:27.990Z,100447.39
2023-01-04T22:44:01.340Z,100438.94
2023-01-04T22:46:31.050Z,100427.77
2023-01-04T22:49:02.284Z,100415.76
2023-01-04T22:51:31.814Z,100408.86
2023-01-04T22:54:02.764Z,100411.56
2023-01-04T22:56:33.352Z,100398.48
2023-01-04T22:59:02.864Z,100391.09
2023-01-04T23:01:34.262Z,100396.48
2023-01-04T23:04:04.597Z,100389.24
2023-01-04T23:06:34.609Z,100386.54
2023-01-04T23:09:06.067Z,100364.22
2023-01-04T23:11:37.105Z,100349.50
2023-01-04T23:14:08.311Z,100349.29
2023-01-04T23:16:37.485Z,100342.69
2023-01-04T23:19:06.687Z,100321.43
2023-01-04T23:21:36.321Z,100313.68
2023-01-04T23:24:06.591Z,100316.03
2023-01-04T23:26:36.619Z,100317.38
2023-01-04T23:29:05.372Z,100321.72
2023-01-04T23:31:35.653Z,100318.16
2023-01-04T23:34:05.863Z,100304.73
2023-01-04T23:36:38.096Z,100292.87
2023-01-04T23:39:13.160Z,100307.22
2023-01-04T23:41:45.783Z,100291.02
2023-01-04T23:44:23.824Z,100285.05
2023-01-04T23:49:36.307Z,100282.99
2023-01-04T23:52:05.503Z,100277.23
2023-01-04T23:54:34.720Z,100275.89
2023-01-04T23:57:03.750Z,100277.23
2023-01-04T23:59:34.649Z,100268.35
